Time;durP1;ratioP1;P1;durP2;ratioP2;P2;SDS_P1;SDS_P2;PMS_P1;PMS_P2;Temp;Humidity;BMP_temperature;BMP_pressure;BME280_temperature;BME280_humidity;BME280_pressure;Samples;Min_cycle;Max_cycle;Signal;HPM_P1;HPM_P2
2021/12/27 00:00:53;;;;;;;7.30;6.50;;;;;;;7.24;100.00;95632.91;5055343;28;20218;-74
2021/12/27 00:03:19;;;;;;;6.40;5.90;;;;;;;7.16;100.00;95632.78;5055677;28;20211;-76
2021/12/27 00:05:46;;;;;;;6.40;5.90;;;;;;;7.15;100.00;95622.44;5055734;28;20214;-78
2021/12/27 00:08:12;;;;;;;6.97;6.33;;;;;;;7.13;100.00;95629.63;5076964;28;20556;-75
2021/12/27 00:10:39;;;;;;;6.67;6.10;;;;;;;7.18;100.00;95627.41;5066516;28;20234;-71
2021/12/27 00:13:07;;;;;;;6.67;6.17;;;;;;;7.11;100.00;95626.34;5055357;28;20206;-75
2021/12/27 00:15:35;;;;;;;6.57;5.97;;;;;;;7.03;100.00;95623.59;5054816;28;20221;-71
2021/12/27 00:18:01;;;;;;;6.57;5.90;;;;;;;6.98;100.00;95622.22;5041539;28;20203;-73
2021/12/27 00:20:28;;;;;;;6.10;5.53;;;;;;;6.96;100.00;95629.44;5054709;28;20203;-72
2021/12/27 00:22:54;;;;;;;6.20;5.70;;;;;;;6.95;100.00;95627.78;5061611;28;20264;-72
2021/12/27 00:25:22;;;;;;;6.63;6.00;;;;;;;6.95;100.00;95627.78;5074995;28;20506;-73
2021/12/27 00:27:48;;;;;;;6.43;5.83;;;;;;;7.00;100.00;95632.63;5075968;28;20210;-73
2021/12/27 00:30:18;;;;;;;6.60;6.03;;;;;;;6.96;100.00;95624.19;5060938;28;20226;-75
2021/12/27 00:32:46;;;;;;;6.57;5.97;;;;;;;6.99;100.00;95626.53;5066823;28;20195;-73
2021/12/27 00:35:13;;;;;;;7.17;6.47;;;;;;;6.98;100.00;95622.22;5076650;28;20215;-75
2021/12/27 00:37:40;;;;;;;5.83;5.40;;;;;;;6.94;100.00;95620.06;5071275;28;20199;-76
2021/12/27 00:40:09;;;;;;;7.20;6.50;;;;;;;6.96;100.00;95618.09;5055787;28;20227;-74
2021/12/27 00:42:36;;;;;;;7.17;6.57;;;;;;;6.88;100.00;95616.19;5055460;28;20203;-70
2021/12/27 00:45:02;;;;;;;6.23;5.70;;;;;;;6.94;100.00;95610.34;5056580;28;20218;-72
2021/12/27 00:47:29;;;;;;;6.93;6.33;;;;;;;6.91;100.00;95608.03;5054705;28;20634;-70
2021/12/27 00:49:57;;;;;;;6.87;6.10;;;;;;;6.91;100.00;95605.38;5055483;28;20226;-73
2021/12/27 00:52:23;;;;;;;7.97;6.43;;;;;;;6.91;100.00;95609.81;5054934;28;20211;-67
2021/12/27 00:54:49;;;;;;;6.30;5.80;;;;;;;6.93;100.00;95608.72;5058328;28;20542;-68
2021/12/27 00:57:16;;;;;;;6.07;5.57;;;;;;;6.93;100.00;95613.97;5075111;28;20229;-68
2021/12/27 00:59:42;;;;;;;6.40;5.90;;;;;;;6.90;100.00;95619.53;5058635;28;20219;-71
2021/12/27 01:02:09;;;;;;;6.00;5.50;;;;;;;6.91;100.00;95618.53;5054558;28;20626;-70
2021/12/27 01:04:35;;;;;;;6.10;5.50;;;;;;;6.92;100.00;95625.44;5055031;28;20203;-69
2021/12/27 01:07:04;;;;;;;6.33;5.83;;;;;;;6.88;100.00;95616.19;5063639;28;20205;-70
2021/12/27 01:09:39;;;;;;;6.43;5.93;;;;;;;6.86;100.00;95615.53;5058674;28;20238;-67
2021/12/27 01:12:25;;;;;;;6.40;5.80;;;;;;;6.93;100.00;95616.59;5075382;28;20301;-71
2021/12/27 01:15:08;;;;;;;5.87;5.47;;;;;;;6.92;100.00;95619.38;5043058;28;20241;-70
2021/12/27 01:17:35;;;;;;;5.17;4.77;;;;;;;6.90;100.00;95618.69;5054805;28;20202;-69
2021/12/27 01:20:01;;;;;;;6.30;5.80;;;;;;;6.89;100.00;95620.50;5065155;28;20570;-70
2021/12/27 01:22:29;;;;;;;5.70;5.20;;;;;;;6.88;100.00;95618.00;5075232;28;20214;-69
2021/12/27 01:24:55;;;;;;;6.03;5.53;;;;;;;6.92;100.00;95622.81;5063141;28;20218;-70
2021/12/27 01:27:22;;;;;;;6.33;5.83;;;;;;;6.87;100.00;95611.09;5054588;28;20250;-72
2021/12/27 01:29:48;;;;;;;6.40;5.80;;;;;;;6.85;100.00;95616.50;5055829;28;20227;-72
2021/12/27 01:32:15;;;;;;;6.30;5.80;;;;;;;6.86;100.00;95614.69;5075863;28;20222;-72
2021/12/27 01:34:41;;;;;;;6.57;6.00;;;;;;;6.84;100.00;95617.47;5078612;28;20222;-72
2021/12/27 01:37:08;;;;;;;6.37;5.67;;;;;;;6.84;100.00;95619.25;5078719;28;20207;-73
2021/12/27 01:39:36;;;;;;;5.97;5.47;;;;;;;6.89;100.00;95619.66;5083673;28;20245;-70
2021/12/27 01:42:03;;;;;;;6.93;6.33;;;;;;;6.88;100.00;95623.25;5069425;28;20226;-70
2021/12/27 01:44:29;;;;;;;6.30;5.70;;;;;;;6.89;100.00;95622.28;5063302;28;20203;-72
2021/12/27 01:46:55;;;;;;;6.10;5.60;;;;;;;6.90;100.00;95614.28;5062497;28;20226;-71
2021/12/27 01:49:23;;;;;;;6.40;5.80;;;;;;;6.92;100.00;95620.19;5082486;28;20238;-71
2021/12/27 01:51:50;;;;;;;6.50;5.90;;;;;;;6.91;100.00;95617.69;5079027;28;20211;-69
2021/12/27 01:54:16;;;;;;;6.37;5.70;;;;;;;6.86;100.00;95614.69;5077038;28;20221;-71
2021/12/27 01:56:44;;;;;;;6.37;5.77;;;;;;;6.87;100.00;95611.91;5071372;28;20289;-71
2021/12/27 01:59:10;;;;;;;6.23;5.67;;;;;;;6.94;100.00;95614.81;5065927;28;20218;-68
2021/12/27 02:01:37;;;;;;;6.80;6.20;;;;;;;6.92;100.00;95603.59;5056110;28;20700;-69
2021/12/27 02:04:04;;;;;;;6.07;5.57;;;;;;;6.94;100.00;95610.34;5057594;28;20218;-69
2021/12/27 02:06:30;;;;;;;6.17;5.67;;;;;;;6.94;100.00;95609.56;5067194;28;20210;-67
2021/12/27 02:08:57;;;;;;;6.03;5.53;;;;;;;6.91;100.00;95602.75;5057410;28;20203;-68
2021/12/27 02:11:23;;;;;;;6.57;5.93;;;;;;;6.92;100.00;95604.44;5060974;28;20519;-68
2021/12/27 02:13:51;;;;;;;6.47;5.97;;;;;;;6.85;100.00;95598.09;5066624;28;20199;-68
2021/12/27 02:16:20;;;;;;;5.80;5.33;;;;;;;6.85;100.00;95597.28;5044961;28;20294;-68
2021/12/27 02:18:47;;;;;;;6.23;5.63;;;;;;;6.79;100.00;95595.22;5078079;28;20618;-68
2021/12/27 02:21:16;;;;;;;6.20;5.70;;;;;;;6.78;100.00;95594.41;5069939;28;20202;-67
2021/12/27 02:23:43;;;;;;;6.17;5.67;;;;;;;6.82;100.00;95592.31;5067311;28;20589;-68
2021/12/27 02:26:10;;;;;;;6.50;6.00;;;;;;;6.81;100.00;95595.91;5067546;28;20301;-68
2021/12/27 02:28:37;;;;;;;6.03;5.53;;;;;;;6.76;100.00;95588.47;5076713;28;20206;-68
2021/12/27 02:31:05;;;;;;;6.33;5.83;;;;;;;6.77;100.00;95587.47;5054070;28;20247;-68
2021/12/27 02:33:31;;;;;;;6.17;5.67;;;;;;;6.73;100.00;95588.75;5059748;28;20210;-68
2021/12/27 02:35:59;;;;;;;6.23;5.80;;;;;;;6.76;100.00;95593.72;5072721;28;20286;-68
2021/12/27 02:38:29;;;;;;;6.50;6.00;;;;;;;6.77;100.00;95591.91;5053392;28;20211;-68
2021/12/27 02:40:56;;;;;;;5.90;5.23;;;;;;;6.81;100.00;95580.97;5048400;28;20256;-68
2021/12/27 02:43:25;;;;;;;6.53;5.97;;;;;;;6.78;100.00;95577.81;5047372;28;20216;-69
2021/12/27 02:45:53;;;;;;;6.77;6.27;;;;;;;6.80;100.00;95576.69;5048876;28;20199;-68
2021/12/27 02:48:21;;;;;;;6.70;5.83;;;;;;;6.83;100.00;95584.28;5048177;28;20657;-68
2021/12/27 02:50:49;;;;;;;6.57;6.07;;;;;;;6.81;100.00;95575.72;5052969;28;20223;-68
2021/12/27 02:53:16;;;;;;;6.30;5.80;;;;;;;6.84;100.00;95577.22;5062043;28;20199;-68
2021/12/27 02:55:45;;;;;;;6.23;5.73;;;;;;;6.88;100.00;95583.84;5060207;28;20210;-68
2021/12/27 02:58:11;;;;;;;6.23;5.63;;;;;;;6.90;100.00;95566.97;5052994;28;20199;-68
2021/12/27 03:00:39;;;;;;;6.00;5.50;;;;;;;6.85;100.00;95573.63;5057443;28;20213;-67
2021/12/27 03:03:05;;;;;;;5.97;5.47;;;;;;;6.81;100.00;95572.25;5058179;28;20615;-69
2021/12/27 03:05:33;;;;;;;5.43;4.93;;;;;;;6.76;100.00;95566.63;5056168;28;20237;-67
2021/12/27 03:07:59;;;;;;;7.17;5.40;;;;;;;6.79;100.00;95574.22;5055748;28;20211;-69
2021/12/27 03:10:29;;;;;;;5.60;5.17;;;;;;;6.75;100.00;95563.16;5054943;28;20590;-67
2021/12/27 03:12:58;;;;;;;6.10;5.60;;;;;;;6.77;100.00;95561.22;5073861;28;20210;-67
2021/12/27 03:15:25;;;;;;;5.63;5.13;;;;;;;6.82;100.00;95558.16;5076227;28;20203;-67
2021/12/27 03:17:53;;;;;;;6.50;5.83;;;;;;;6.78;100.00;95555.00;5071781;28;20210;-67
2021/12/27 03:20:21;;;;;;;6.13;5.63;;;;;;;6.72;100.00;95552.97;5055719;28;20213;-68
2021/12/27 03:22:48;;;;;;;5.53;5.03;;;;;;;6.71;100.00;95545.22;5055870;28;20203;-67
2021/12/27 03:25:16;;;;;;;6.03;4.93;;;;;;;6.65;100.00;95549.25;5055950;28;20222;-70
2021/12/27 03:27:43;;;;;;;6.27;5.67;;;;;;;6.61;100.00;95545.28;5076372;28;20210;-69
2021/12/27 03:30:14;;;;;;;6.00;5.37;;;;;;;6.60;100.00;95548.84;5075636;28;20580;-67
2021/12/27 03:32:40;;;;;;;5.97;5.37;;;;;;;6.57;100.00;95556.19;5043739;28;20211;-69
2021/12/27 03:35:10;;;;;;;6.17;5.40;;;;;;;6.58;100.00;95549.97;5056069;28;20284;-68
2021/12/27 03:37:38;;;;;;;5.83;5.43;;;;;;;6.51;100.00;95544.50;5055884;28;20213;-69
2021/12/27 03:40:07;;;;;;;5.50;5.10;;;;;;;6.48;100.00;95534.28;5055201;28;20235;-68
2021/12/27 03:42:34;;;;;;;5.50;5.10;;;;;;;6.53;100.00;95539.91;5055721;28;20203;-68
2021/12/27 03:45:01;;;;;;;5.77;5.27;;;;;;;6.48;100.00;95531.66;5054638;28;20223;-68
2021/12/27 03:47:28;;;;;;;5.70;5.20;;;;;;;6.43;100.00;95529.44;5063927;28;20213;-69
2021/12/27 03:49:55;;;;;;;5.00;4.60;;;;;;;6.43;100.00;95528.63;5063995;28;20231;-69
2021/12/27 03:52:21;;;;;;;5.33;4.83;;;;;;;6.33;100.00;95535.72;5076810;28;20541;-69
2021/12/27 03:54:48;;;;;;;5.00;4.60;;;;;;;6.26;100.00;95530.22;5078452;28;20202;-67
2021/12/27 03:57:16;;;;;;;4.73;4.43;;;;;;;6.23;100.00;95525.25;5073554;28;20207;-69
2021/12/27 03:59:53;;;;;;;6.00;5.20;;;;;;;6.22;100.00;95531.47;5059724;28;20238;-68
2021/12/27 04:02:20;;;;;;;5.33;4.93;;;;;;;6.17;100.00;95527.59;5069722;28;20217;-69
2021/12/27 04:04:48;;;;;;;5.23;4.73;;;;;;;6.14;100.00;95527.91;5055184;28;20202;-68
2021/12/27 04:07:14;;;;;;;5.37;4.87;;;;;;;6.09;100.00;95522.28;5071988;28;20509;-67
2021/12/27 04:09:41;;;;;;;6.10;5.50;;;;;;;6.11;100.00;95525.56;5061398;28;20225;-68
2021/12/27 04:12:08;;;;;;;5.50;5.00;;;;;;;5.85;100.00;95523.53;5048882;28;20612;-70
2021/12/27 04:14:35;;;;;;;5.33;4.93;;;;;;;5.71;100.00;95521.34;5059019;28;20239;-68
2021/12/27 04:17:01;;;;;;;5.43;4.97;;;;;;;5.76;100.00;95516.50;5059658;28;20207;-68
2021/12/27 04:19:28;;;;;;;5.13;4.73;;;;;;;5.59;100.00;95519.84;5054184;28;20204;-67
2021/12/27 04:21:55;;;;;;;5.00;4.60;;;;;;;5.52;100.00;95508.28;5060666;28;20659;-68
2021/12/27 04:24:22;;;;;;;5.70;5.30;;;;;;;5.56;100.00;95512.28;5065422;28;20207;-69
2021/12/27 04:26:48;;;;;;;6.40;5.33;;;;;;;5.43;100.00;95509.09;5084227;28;20206;-68
2021/12/27 04:29:15;;;;;;;6.00;5.47;;;;;;;5.39;100.00;95518.19;5086506;28;20211;-69
2021/12/27 04:31:41;;;;;;;5.80;5.20;;;;;;;5.39;100.00;95515.56;5071236;28;20526;-68
2021/12/27 04:34:08;;;;;;;5.43;5.03;;;;;;;5.35;100.00;95530.75;5060495;28;20211;-69
2021/12/27 04:36:34;;;;;;;4.70;4.40;;;;;;;5.34;100.00;95530.91;5047381;28;20211;-68
2021/12/27 04:39:02;;;;;;;5.17;4.77;;;;;;;5.28;100.00;95531.47;5059601;28;20203;-68
2021/12/27 04:41:28;;;;;;;5.37;4.90;;;;;;;5.17;100.00;95523.75;5060023;28;20231;-69
2021/12/27 04:43:55;;;;;;;5.30;4.87;;;;;;;5.17;100.00;95524.56;5060056;28;20539;-68
2021/12/27 04:46:21;;;;;;;7.30;4.90;;;;;;;5.10;100.00;95523.44;5070514;28;20202;-68
2021/12/27 04:48:51;;;;;;;4.70;4.40;;;;;;;5.06;100.00;95516.84;5078022;28;20206;-67
2021/12/27 04:51:20;;;;;;;5.03;4.73;;;;;;;5.05;100.00;95519.59;5065942;28;20231;-67
2021/12/27 04:53:46;;;;;;;5.13;4.73;;;;;;;4.95;100.00;95511.72;5059496;28;20273;-68
2021/12/27 04:56:14;;;;;;;5.07;4.57;;;;;;;4.89;100.00;95510.47;5061297;28;20227;-67
2021/12/27 04:58:44;;;;;;;4.67;4.27;;;;;;;4.98;100.00;95514.06;5067572;28;20218;-68
2021/12/27 05:01:10;;;;;;;4.50;4.10;;;;;;;4.95;100.00;95509.94;5068666;28;20203;-67
2021/12/27 05:03:37;;;;;;;4.93;4.53;;;;;;;4.94;100.00;95510.91;5079200;28;20205;-70
2021/12/27 05:06:03;;;;;;;5.00;4.60;;;;;;;4.85;100.00;95506.47;5069286;28;20569;-68
2021/12/27 05:08:30;;;;;;;6.50;5.90;;;;;;;4.87;100.00;95506.34;5070963;28;20203;-68
2021/12/27 05:10:56;;;;;;;8.43;7.57;;;;;;;4.89;100.00;95494.75;5069947;28;20230;-68
2021/12/27 05:13:24;;;;;;;7.57;6.70;;;;;;;4.89;100.00;95493.91;5074808;28;20203;-68
2021/12/27 05:15:50;;;;;;;5.63;5.13;;;;;;;4.81;100.00;95486.78;5088171;28;20206;-68
2021/12/27 05:18:17;;;;;;;5.27;4.27;;;;;;;4.76;100.00;95494.19;5087500;28;20203;-68
2021/12/27 05:20:44;;;;;;;3.93;3.63;;;;;;;4.75;100.00;95489.06;5068354;28;20230;-67
2021/12/27 05:23:10;;;;;;;3.70;3.40;;;;;;;4.70;100.00;95479.03;5071532;28;20203;-68
2021/12/27 05:25:37;;;;;;;3.63;3.30;;;;;;;4.61;100.00;95485.06;5085235;28;20244;-69
2021/12/27 05:28:04;;;;;;;3.67;3.37;;;;;;;4.56;100.00;95479.41;5077206;28;20242;-67
2021/12/27 05:30:31;;;;;;;4.30;4.00;;;;;;;4.52;100.00;95475.41;5060084;28;20234;-67
2021/12/27 05:32:58;;;;;;;3.50;3.30;;;;;;;4.47;100.00;95469.75;5076687;28;20622;-67
2021/12/27 05:35:24;;;;;;;3.70;3.43;;;;;;;4.49;100.00;95468.66;5073479;28;20221;-68
2021/12/27 05:37:51;;;;;;;3.37;3.10;;;;;;;4.43;100.00;95463.94;5078589;28;20222;-68
2021/12/27 05:40:20;;;;;;;3.23;2.93;;;;;;;4.46;100.00;95465.50;5077980;28;20249;-67
2021/12/27 05:42:47;;;;;;;4.27;2.90;;;;;;;4.43;100.00;95450.84;5060367;28;20621;-67
2021/12/27 05:45:13;;;;;;;3.23;3.03;;;;;;;4.31;100.00;95461.59;5059894;28;20569;-68
2021/12/27 05:47:41;;;;;;;5.57;3.17;;;;;;;4.27;100.00;95450.56;5058137;28;20207;-68
2021/12/27 05:50:09;;;;;;;5.53;2.60;;;;;;;4.25;100.00;95456.91;5057705;28;20210;-67
2021/12/27 05:52:36;;;;;;;3.10;2.90;;;;;;;4.19;100.00;95457.41;5057916;28;20291;-67
2021/12/27 05:55:03;;;;;;;3.67;2.50;;;;;;;4.23;100.00;95453.56;5058779;28;20218;-66
2021/12/27 05:57:29;;;;;;;4.77;2.70;;;;;;;4.21;100.00;95445.03;5078034;28;20234;-69
2021/12/27 05:59:56;;;;;;;2.97;2.77;;;;;;;4.15;100.00;95450.78;5078310;28;20194;-68
2021/12/27 06:02:22;;;;;;;4.73;2.80;;;;;;;4.10;100.00;95445.97;5078076;28;20223;-68
2021/12/27 06:04:51;;;;;;;3.00;2.80;;;;;;;4.13;100.00;95437.84;5078627;28;20203;-69
2021/12/27 06:07:17;;;;;;;3.07;2.80;;;;;;;4.08;100.00;95436.56;5067932;28;20524;-67
2021/12/27 06:09:44;;;;;;;2.70;2.50;;;;;;;4.07;100.00;95429.72;5057739;28;20297;-68
2021/12/27 06:12:11;;;;;;;2.60;2.50;;;;;;;3.95;100.00;95437.66;5057720;28;20227;-68
2021/12/27 06:14:38;;;;;;;2.67;2.57;;;;;;;3.91;100.00;95436.25;5057719;28;20645;-68
2021/12/27 06:17:04;;;;;;;3.87;2.77;;;;;;;3.94;100.00;95438.59;5056381;28;20226;-65
2021/12/27 06:19:31;;;;;;;3.03;2.83;;;;;;;3.97;100.00;95438.34;5062014;28;20515;-68
2021/12/27 06:21:59;;;;;;;3.27;3.07;;;;;;;3.97;100.00;95437.50;5077191;28;20216;-67
2021/12/27 06:24:26;;;;;;;3.83;2.90;;;;;;;3.95;100.00;95431.59;5066167;28;20203;-68
2021/12/27 06:26:52;;;;;;;2.63;2.43;;;;;;;3.93;100.00;95439.56;5078623;28;20214;-69
2021/12/27 06:29:19;;;;;;;3.20;3.00;;;;;;;3.94;100.00;95436.00;5074963;28;20217;-68
2021/12/27 06:31:45;;;;;;;3.27;2.93;;;;;;;3.94;100.00;95438.59;5058188;28;20242;-68
2021/12/27 06:34:13;;;;;;;2.90;2.70;;;;;;;3.92;100.00;95432.69;5057365;28;20214;-68
2021/12/27 06:36:40;;;;;;;3.27;2.50;;;;;;;3.88;100.00;95425.25;5057402;28;20214;-67
2021/12/27 06:39:09;;;;;;;2.80;2.60;;;;;;;3.89;100.00;95422.50;5067757;28;20195;-67
2021/12/27 06:41:36;;;;;;;3.03;2.80;;;;;;;3.83;100.00;95415.16;5056431;28;20266;-67
2021/12/27 06:44:02;;;;;;;3.23;2.60;;;;;;;3.81;100.00;95411.03;5056506;28;20298;-67
2021/12/27 06:46:29;;;;;;;3.10;2.90;;;;;;;3.84;100.00;95416.84;5056502;28;20215;-67
2021/12/27 06:48:55;;;;;;;2.80;2.60;;;;;;;3.77;100.00;95410.47;5056853;28;20215;-67
2021/12/27 06:51:22;;;;;;;3.00;2.80;;;;;;;3.79;100.00;95400.69;5056351;28;20227;-68
2021/12/27 06:53:48;;;;;;;2.87;2.67;;;;;;;3.76;100.00;95403.59;5056526;28;20268;-67
2021/12/27 06:56:17;;;;;;;2.73;2.53;;;;;;;3.72;100.00;95399.56;5071561;28;20206;-67
2021/12/27 06:58:43;;;;;;;2.50;2.30;;;;;;;3.75;100.00;95394.09;5076294;28;20214;-68
2021/12/27 07:01:09;;;;;;;3.20;2.30;;;;;;;3.63;100.00;95395.16;5076216;28;20522;-66
2021/12/27 07:03:36;;;;;;;3.03;2.83;;;;;;;3.68;100.00;95392.97;5058880;28;20211;-67
2021/12/27 07:06:03;;;;;;;4.50;2.50;;;;;;;3.65;100.00;95385.38;5062161;28;20207;-66
2021/12/27 07:08:29;;;;;;;2.50;2.30;;;;;;;3.57;100.00;95393.06;5055724;28;20214;-67
2021/12/27 07:10:55;;;;;;;2.87;2.60;;;;;;;3.60;100.00;95398.03;5060325;28;20211;-68
2021/12/27 07:13:23;;;;;;;2.30;2.20;;;;;;;3.62;100.00;95393.47;5056140;28;20221;-67
2021/12/27 07:15:50;;;;;;;3.07;2.10;;;;;;;3.58;100.00;95392.09;5056615;28;20218;-66
2021/12/27 07:18:22;;;;;;;2.47;2.27;;;;;;;3.61;100.00;95384.00;5048648;28;20215;-68
2021/12/27 07:20:49;;;;;;;2.90;2.70;;;;;;;3.65;100.00;95390.59;5071098;28;20214;-68
2021/12/27 07:23:15;;;;;;;2.83;2.63;;;;;;;3.61;100.00;95391.03;5076325;28;20206;-68
2021/12/27 07:25:42;;;;;;;2.90;2.70;;;;;;;3.56;100.00;95388.78;5063803;28;20209;-68
2021/12/27 07:28:08;;;;;;;6.43;2.40;;;;;;;3.60;100.00;95392.81;5058453;28;20622;-69
2021/12/27 07:30:36;;;;;;;2.20;2.10;;;;;;;3.59;100.00;95392.91;5073784;28;20214;-68
2021/12/27 07:33:03;;;;;;;2.63;2.43;;;;;;;3.55;100.00;95404.59;5076468;28;20230;-68
2021/12/27 07:35:29;;;;;;;3.07;2.20;;;;;;;3.54;100.00;95398.56;5057609;28;20511;-68
2021/12/27 07:37:56;;;;;;;2.33;2.13;;;;;;;3.62;100.00;95395.25;5056065;28;20206;-68
2021/12/27 07:40:22;;;;;;;1.90;1.80;;;;;;;3.66;100.00;95401.88;5055696;28;20253;-67
2021/12/27 07:42:49;;;;;;;2.17;1.90;;;;;;;3.64;100.00;95402.03;5056120;28;20213;-68
2021/12/27 07:45:15;;;;;;;3.30;1.80;;;;;;;3.66;100.00;95397.50;5071220;28;20203;-67
2021/12/27 07:47:43;;;;;;;2.30;2.20;;;;;;;3.69;100.00;95397.22;5057018;28;20634;-68
2021/12/27 07:50:10;;;;;;;2.23;2.03;;;;;;;3.75;100.00;95404.56;5056631;28;20218;-67
2021/12/27 07:52:36;;;;;;;3.30;2.20;;;;;;;3.65;100.00;95402.88;5056258;28;20245;-67
2021/12/27 07:55:04;;;;;;;3.13;2.73;;;;;;;3.65;100.00;95398.44;5055783;28;20226;-69
2021/12/27 07:57:30;;;;;;;5.40;2.23;;;;;;;3.66;100.00;95407.94;5068960;28;20217;-67
2021/12/27 07:59:57;;;;;;;2.23;2.13;;;;;;;3.74;100.00;95402.91;5076776;28;20518;-65
2021/12/27 08:02:23;;;;;;;2.17;2.07;;;;;;;3.82;100.00;95397.84;5066721;28;20196;-67
2021/12/27 08:04:51;;;;;;;3.23;1.90;;;;;;;3.84;100.00;95398.53;5050613;28;20200;-68
2021/12/27 08:07:18;;;;;;;2.40;2.30;;;;;;;3.82;100.00;95400.47;5055652;28;20218;-66
2021/12/27 08:09:44;;;;;;;2.60;2.40;;;;;;;3.87;100.00;95395.66;5060544;28;20213;-68
2021/12/27 08:12:12;;;;;;;2.53;2.20;;;;;;;3.88;100.00;95402.53;5069034;28;20541;-67
2021/12/27 08:14:39;;;;;;;2.60;2.40;;;;;;;3.94;100.00;95402.00;5075671;28;20570;-67
2021/12/27 08:17:05;;;;;;;2.80;2.60;;;;;;;4.06;100.00;95396.66;5076930;28;20214;-67
2021/12/27 08:19:33;;;;;;;3.20;2.90;;;;;;;4.20;100.00;95401.50;5049767;28;20210;-67
2021/12/27 08:22:01;;;;;;;3.57;3.27;;;;;;;4.31;100.00;95398.78;5076960;28;20201;-67
2021/12/27 08:24:27;;;;;;;3.77;3.47;;;;;;;4.33;100.00;95402.09;5070659;28;20214;-68
2021/12/27 08:26:54;;;;;;;4.10;3.70;;;;;;;4.34;100.00;95404.56;5061380;28;20214;-67
2021/12/27 08:29:21;;;;;;;3.33;3.13;;;;;;;4.41;100.00;95404.84;5083690;28;20269;-67
2021/12/27 08:31:47;;;;;;;4.03;3.73;;;;;;;4.37;100.00;95399.06;5088480;28;20218;-69
2021/12/27 08:34:14;;;;;;;4.23;3.93;;;;;;;4.34;100.00;95408.97;5068116;28;20607;-67
2021/12/27 08:36:40;;;;;;;4.77;4.37;;;;;;;4.43;100.00;95408.16;5068644;28;20217;-66
2021/12/27 08:39:08;;;;;;;4.80;4.40;;;;;;;4.56;100.00;95413.97;5057040;28;20211;-67
2021/12/27 08:41:34;;;;;;;5.60;5.20;;;;;;;4.66;100.00;95414.81;5059494;28;20223;-68
2021/12/27 08:44:04;;;;;;;5.33;4.80;;;;;;;4.70;100.00;95416.19;5060297;28;20218;-68
2021/12/27 08:46:30;;;;;;;5.90;5.30;;;;;;;4.74;100.00;95412.34;5060394;28;20289;-67
2021/12/27 08:48:57;;;;;;;5.10;4.70;;;;;;;4.88;100.00;95418.94;5061075;28;20210;-66
2021/12/27 08:51:25;;;;;;;4.40;4.10;;;;;;;5.04;100.00;95413.97;5060914;28;20198;-67
2021/12/27 08:53:52;;;;;;;4.10;3.70;;;;;;;5.20;100.00;95409.00;5062985;28;20207;-67
2021/12/27 08:56:20;;;;;;;8.70;4.13;;;;;;;5.46;100.00;95409.19;5067191;28;20218;-66
2021/12/27 08:58:47;;;;;;;4.10;3.80;;;;;;;5.73;100.00;95411.88;5069876;28;20623;-68
2021/12/27 09:01:13;;;;;;;4.33;4.03;;;;;;;6.07;100.00;95412.19;5074364;28;20203;-68
2021/12/27 09:03:40;;;;;;;4.20;3.80;;;;;;;6.54;99.78;95410.25;5078457;28;20246;-68
2021/12/27 09:06:06;;;;;;;4.33;4.03;;;;;;;6.74;96.41;95414.38;5078079;28;20203;-68
2021/12/27 09:08:33;;;;;;;4.80;4.50;;;;;;;6.93;95.36;95402.91;5087988;28;20199;-69
2021/12/27 09:10:59;;;;;;;4.63;4.33;;;;;;;7.16;94.16;95406.72;5059993;28;20206;-68
2021/12/27 09:13:28;;;;;;;4.60;4.30;;;;;;;7.25;93.62;95402.34;5069212;28;20237;-67
2021/12/27 09:15:55;;;;;;;4.70;4.37;;;;;;;7.23;93.79;95404.28;5078845;28;20206;-69
2021/12/27 09:18:22;;;;;;;4.37;3.87;;;;;;;7.07;93.41;95402.38;5057142;28;20204;-67
2021/12/27 09:20:48;;;;;;;4.50;4.20;;;;;;;7.01;94.81;95400.38;5069749;28;20211;-67
2021/12/27 09:23:15;;;;;;;5.10;4.60;;;;;;;7.05;95.00;95401.69;5058484;28;20210;-67
2021/12/27 09:25:42;;;;;;;5.07;4.67;;;;;;;7.11;93.85;95390.59;5058466;28;20215;-69
2021/12/27 09:28:09;;;;;;;5.67;4.77;;;;;;;7.09;93.07;95391.69;5058425;28;20203;-67
2021/12/27 09:30:37;;;;;;;4.90;4.40;;;;;;;7.13;92.66;95390.41;5058421;28;20638;-68
2021/12/27 09:33:04;;;;;;;4.67;4.30;;;;;;;7.18;92.48;95380.28;5058411;28;20222;-67
2021/12/27 09:35:30;;;;;;;4.57;4.13;;;;;;;7.35;92.43;95376.78;5076308;28;20229;-67
2021/12/27 09:37:57;;;;;;;4.43;4.13;;;;;;;7.28;91.10;95368.69;5060229;28;20530;-66
2021/12/27 09:40:23;;;;;;;4.60;4.20;;;;;;;7.40;91.04;95367.44;5058134;28;20230;-67
2021/12/27 09:42:51;;;;;;;4.17;3.87;;;;;;;7.64;90.15;95365.94;5058616;28;20206;-68
2021/12/27 09:45:18;;;;;;;4.13;3.83;;;;;;;7.63;92.82;95359.84;5057991;28;20276;-67
2021/12/27 09:47:47;;;;;;;4.70;4.40;;;;;;;7.66;90.52;95359.53;5069813;28;20207;-68
2021/12/27 09:50:18;;;;;;;5.97;4.80;;;;;;;7.85;90.10;95363.75;5078762;28;20228;-67
2021/12/27 09:52:44;;;;;;;4.27;3.97;;;;;;;8.05;89.78;95361.69;5073318;28;20238;-67
2021/12/27 09:55:11;;;;;;;6.33;5.40;;;;;;;8.45;88.03;95364.50;5057630;28;20578;-69
2021/12/27 09:57:38;;;;;;;7.10;6.40;;;;;;;8.58;85.75;95351.66;5058056;28;20210;-69
2021/12/27 10:00:05;;;;;;;8.07;7.23;;;;;;;8.59;85.94;95360.41;5057875;28;20206;-69
2021/12/27 10:02:34;;;;;;;9.03;7.90;;;;;;;8.89;85.32;95347.41;5071435;28;20210;-67
2021/12/27 10:05:02;;;;;;;10.60;9.43;;;;;;;8.62;85.53;95337.19;5061340;28;20194;-68
2021/12/27 10:07:30;;;;;;;9.37;8.37;;;;;;;8.61;85.89;95340.78;5063823;28;20230;-68
2021/12/27 10:09:59;;;;;;;8.93;8.10;;;;;;;8.39;88.19;95342.28;5057550;28;20203;-67
2021/12/27 10:12:26;;;;;;;9.90;8.90;;;;;;;8.42;86.57;95341.09;5058936;28;20245;-67
2021/12/27 10:14:57;;;;;;;9.63;8.63;;;;;;;7.84;89.28;95341.88;5069333;28;20635;-68
2021/12/27 10:17:24;;;;;;;9.47;8.57;;;;;;;7.96;88.91;95342.41;5055509;28;20199;-67
2021/12/27 10:19:51;;;;;;;9.23;8.33;;;;;;;7.69;87.70;95332.91;5046717;28;20214;-66
2021/12/27 10:22:20;;;;;;;9.23;8.33;;;;;;;7.61;90.15;95338.16;5045347;28;20200;-67
2021/12/27 10:24:50;;;;;;;9.33;8.43;;;;;;;7.39;92.64;95339.50;5059643;28;20680;-66
2021/12/27 10:27:18;;;;;;;8.40;7.60;;;;;;;7.48;91.53;95335.09;5079413;28;20179;-68
2021/12/27 10:29:45;;;;;;;8.40;7.60;;;;;;;7.38;92.47;95334.41;5078890;28;20195;-67
2021/12/27 10:32:14;;;;;;;8.37;7.57;;;;;;;7.22;92.84;95337.75;5074530;28;20226;-68
2021/12/27 10:34:44;;;;;;;7.47;6.77;;;;;;;7.24;93.54;95342.84;5072168;28;20200;-67
2021/12/27 10:37:14;;;;;;;8.03;7.27;;;;;;;7.09;95.06;95331.25;5074881;28;20222;-67
2021/12/27 10:39:44;;;;;;;7.50;6.90;;;;;;;7.16;95.25;95333.09;5077154;28;20238;-67
2021/12/27 10:42:13;;;;;;;7.50;6.83;;;;;;;7.12;95.74;95334.38;5064136;28;20207;-68
2021/12/27 10:44:40;;;;;;;9.73;7.10;;;;;;;7.23;95.94;95328.88;5069746;28;20206;-69
2021/12/27 10:47:34;;;;;;;7.47;6.87;;;;;;;7.26;96.48;95330.41;5077227;28;20221;-68
2021/12/27 10:50:04;;;;;;;7.23;6.63;;;;;;;7.37;95.46;95327.47;5077156;28;20206;-69
2021/12/27 10:52:50;;;;;;;7.47;6.87;;;;;;;7.24;96.13;95327.91;5076213;28;20674;-68
2021/12/27 10:55:19;;;;;;;8.13;7.33;;;;;;;7.37;96.35;95328.31;5076810;28;20203;-68
2021/12/27 10:57:47;;;;;;;6.73;6.17;;;;;;;7.34;97.10;95325.16;5076590;28;20582;-68
2021/12/27 11:00:27;;;;;;;6.97;6.37;;;;;;;7.40;96.44;95327.19;5064847;28;20508;-68
2021/12/27 11:02:54;;;;;;;7.00;6.40;;;;;;;7.41;95.84;95313.88;5056150;28;20187;-68
2021/12/27 11:05:23;;;;;;;6.67;6.17;;;;;;;7.47;96.17;95313.22;5063048;28;20203;-67
2021/12/27 11:07:50;;;;;;;6.90;6.40;;;;;;;7.38;97.00;95314.19;5059723;28;20211;-68
2021/12/27 11:10:16;;;;;;;6.83;6.23;;;;;;;7.56;98.59;95314.13;5056570;28;20580;-66
2021/12/27 11:12:44;;;;;;;6.57;6.03;;;;;;;7.67;97.24;95313.00;5052198;28;20546;-68
2021/12/27 11:15:12;;;;;;;7.00;6.40;;;;;;;7.76;96.31;95307.63;5067134;28;20210;-68
2021/12/27 11:17:39;;;;;;;6.77;6.13;;;;;;;7.76;95.98;95315.50;5069789;28;20210;-67
2021/12/27 11:20:09;;;;;;;6.53;6.03;;;;;;;7.76;95.70;95315.50;5056526;28;20524;-68
2021/12/27 11:22:37;;;;;;;6.23;5.80;;;;;;;7.74;95.66;95328.00;5056711;28;20637;-68
2021/12/27 11:25:06;;;;;;;7.27;6.67;;;;;;;7.76;95.64;95320.78;5056406;28;20231;-68
2021/12/27 11:27:34;;;;;;;6.40;5.90;;;;;;;7.82;95.27;95314.91;5056073;28;20701;-69
2021/12/27 11:30:09;;;;;;;6.30;5.80;;;;;;;7.90;94.89;95317.53;5055926;28;20211;-68
2021/12/27 11:32:36;;;;;;;6.13;5.70;;;;;;;7.92;94.94;95309.50;5056514;28;20223;-67
2021/12/27 11:35:09;;;;;;;5.13;4.73;;;;;;;7.97;91.94;95308.03;5055687;28;20557;-66